createdAt,value
2018-08-09T00:01:06.550Z,96.34
2018-08-09T00:03:34.837Z,97.90
2018-08-09T00:06:03.101Z,99.30
2018-08-09T00:08:31.350Z,99.58
2018-08-09T00:10:59.607Z,100.00
2018-08-09T00:13:27.893Z,100.00
2018-08-09T00:15:56.162Z,100.00
2018-08-09T00:18:24.469Z,100.00
2018-08-09T00:20:52.754Z,100.00
2018-08-09T00:23:21.079Z,100.00
2018-08-09T00:25:49.292Z,100.00
2018-08-09T00:28:17.523Z,100.00
2018-08-09T00:30:45.823Z,100.00
2018-08-09T00:33:14.104Z,100.00
2018-08-09T00:35:42.373Z,100.00
2018-08-09T00:38:10.577Z,100.00
2018-08-09T00:40:38.824Z,100.00
2018-08-09T00:43:07.039Z,99.43
2018-08-09T00:45:35.369Z,98.43
2018-08-09T00:48:03.574Z,100.00
2018-08-09T00:50:31.763Z,100.00
2018-08-09T00:52:59.997Z,100.00
2018-08-09T00:55:28.605Z,100.00
2018-08-09T00:57:56.797Z,100.00
2018-08-09T01:00:25.058Z,100.00
2018-08-09T01:02:53.365Z,100.00
2018-08-09T01:05:21.629Z,100.00
2018-08-09T01:07:49.929Z,100.00
2018-08-09T01:10:18.245Z,100.00
2018-08-09T01:12:46.545Z,100.00
2018-08-09T01:15:14.735Z,100.00
2018-08-09T01:17:42.989Z,100.00
2018-08-09T01:20:11.273Z,100.00
2018-08-09T01:22:39.491Z,100.00
2018-08-09T01:25:07.708Z,100.00
2018-08-09T01:27:35.921Z,100.00
2018-08-09T01:30:04.580Z,100.00
2018-08-09T01:32:32.769Z,100.00
2018-08-09T01:35:01.026Z,100.00
2018-08-09T01:37:29.336Z,100.00
2018-08-09T01:39:57.585Z,100.00
2018-08-09T01:43:37.817Z,100.00
2018-08-09T01:46:06.496Z,100.00
2018-08-09T01:48:35.577Z,100.00
2018-08-09T01:51:03.873Z,100.00
2018-08-09T01:53:32.086Z,100.00
2018-08-09T01:56:00.279Z,100.00
2018-08-09T01:58:28.510Z,100.00
2018-08-09T02:00:56.717Z,100.00
2018-08-09T02:03:24.992Z,100.00
2018-08-09T02:05:53.174Z,100.00
2018-08-09T02:08:21.354Z,100.00
2018-08-09T02:10:49.546Z,100.00
2018-08-09T02:13:17.834Z,100.00
2018-08-09T02:15:46.030Z,100.00
2018-08-09T02:18:14.213Z,100.00
2018-08-09T02:20:42.538Z,100.00
2018-08-09T02:23:10.789Z,100.00
2018-08-09T02:25:38.974Z,100.00
2018-08-09T02:28:07.259Z,100.00
2018-08-09T02:30:35.450Z,100.00
2018-08-09T02:33:04.242Z,100.00
2018-08-09T02:35:32.437Z,100.00
2018-08-09T02:38:00.626Z,100.00
2018-08-09T02:40:28.861Z,100.00
2018-08-09T02:42:57.041Z,100.00
2018-08-09T02:45:25.298Z,100.00
2018-08-09T02:47:53.497Z,100.00
2018-08-09T02:50:21.704Z,100.00
2018-08-09T02:52:49.967Z,100.00
2018-08-09T02:55:18.262Z,100.00
2018-08-09T02:57:46.450Z,100.00
2018-08-09T03:00:14.637Z,100.00
2018-08-09T03:02:42.901Z,100.00
2018-08-09T03:05:11.207Z,100.00
2018-08-09T03:07:39.399Z,100.00
2018-08-09T03:10:07.602Z,100.00
2018-08-09T03:12:35.841Z,100.00
2018-08-09T03:15:04.071Z,100.00
2018-08-09T03:17:32.298Z,100.00
2018-08-09T03:21:03.870Z,100.00
2018-08-09T03:23:32.051Z,100.00
2018-08-09T03:26:00.282Z,100.00
2018-08-09T03:28:28.653Z,100.00
2018-08-09T03:30:56.866Z,100.00
2018-08-09T03:33:25.129Z,100.00
2018-08-09T03:35:53.310Z,100.00
2018-08-09T03:38:21.487Z,100.00
2018-08-09T03:40:49.674Z,100.00
2018-08-09T03:43:17.861Z,100.00
2018-08-09T03:45:46.106Z,100.00
2018-08-09T03:48:14.293Z,100.00
2018-08-09T03:50:42.485Z,100.00
2018-08-09T03:53:10.730Z,100.00
2018-08-09T03:55:38.934Z,100.00
2018-08-09T03:58:07.180Z,100.00
2018-08-09T04:00:35.418Z,100.00
2018-08-09T04:03:03.741Z,100.00
2018-08-09T04:05:31.941Z,100.00
2018-08-09T04:08:00.269Z,100.00
2018-08-09T04:10:28.754Z,100.00
2018-08-09T04:12:57.046Z,100.00
2018-08-09T04:15:25.341Z,100.00
2018-08-09T04:17:53.700Z,100.00
2018-08-09T04:20:21.898Z,100.00
2018-08-09T04:22:50.127Z,100.00
2018-08-09T04:25:18.327Z,100.00
2018-08-09T04:27:46.527Z,100.00
2018-08-09T04:30:14.803Z,100.00
2018-08-09T04:32:43.074Z,100.00
2018-08-09T04:35:11.354Z,100.00
2018-08-09T04:37:39.539Z,100.00
2018-08-09T04:40:07.752Z,100.00
2018-08-09T04:42:35.938Z,100.00
2018-08-09T04:45:04.305Z,100.00
2018-08-09T04:47:32.501Z,100.00
2018-08-09T04:50:00.696Z,100.00
2018-08-09T04:52:28.891Z,100.00
2018-08-09T04:54:57.134Z,100.00
2018-08-09T04:57:25.343Z,100.00
2018-08-09T04:59:53.625Z,100.00
2018-08-09T05:02:21.842Z,100.00
2018-08-09T05:04:50.038Z,100.00
2018-08-09T05:07:20.594Z,100.00
2018-08-09T05:09:48.774Z,100.00
2018-08-09T05:12:16.986Z,100.00
2018-08-09T05:14:45.169Z,100.00
2018-08-09T05:17:13.386Z,100.00
2018-08-09T05:19:41.598Z,100.00
2018-08-09T05:22:09.786Z,100.00
2018-08-09T05:27:05.282Z,100.00
2018-08-09T05:29:33.563Z,100.00
2018-08-09T05:32:01.746Z,100.00
2018-08-09T05:34:29.941Z,100.00
2018-08-09T05:36:58.113Z,100.00
2018-08-09T05:39:26.298Z,100.00
2018-08-09T05:41:54.526Z,100.00
2018-08-09T05:44:22.710Z,100.00
2018-08-09T05:46:50.922Z,100.00
2018-08-09T05:49:19.121Z,100.00
2018-08-09T05:51:47.317Z,100.00
2018-08-09T05:54:15.530Z,100.00
2018-08-09T05:56:43.727Z,100.00
2018-08-09T05:59:11.926Z,100.00
2018-08-09T06:01:40.144Z,100.00
2018-08-09T06:04:08.329Z,100.00
2018-08-09T06:06:36.570Z,100.00
2018-08-09T06:09:08.119Z,100.00
2018-08-09T06:11:36.340Z,100.00
2018-08-09T06:14:04.549Z,100.00
2018-08-09T06:16:32.865Z,100.00
2018-08-09T06:19:01.072Z,100.00
2018-08-09T06:21:29.342Z,100.00
2018-08-09T06:23:57.547Z,100.00
2018-08-09T06:26:25.858Z,100.00
2018-08-09T06:28:54.058Z,100.00
2018-08-09T06:31:22.685Z,99.86
2018-08-09T06:33:50.870Z,100.00
2018-08-09T06:36:19.116Z,98.13
2018-08-09T06:38:47.385Z,98.07
2018-08-09T06:41:15.589Z,97.12
2018-08-09T06:43:43.795Z,96.42
2018-08-09T06:46:11.982Z,94.81
2018-08-09T06:48:40.194Z,94.19
2018-08-09T06:51:08.400Z,92.62
2018-08-09T06:53:36.569Z,92.64
2018-08-09T06:56:04.791Z,91.82
2018-08-09T06:58:32.987Z,93.32
2018-08-09T07:01:01.197Z,90.62
2018-08-09T07:03:29.390Z,88.92
2018-08-09T07:05:57.578Z,89.70
2018-08-09T07:08:25.789Z,89.84
2018-08-09T07:10:53.989Z,88.53
2018-08-09T07:13:22.202Z,86.34
2018-08-09T07:15:50.397Z,87.03
2018-08-09T07:18:18.630Z,87.37
2018-08-09T07:20:46.838Z,86.40
2018-08-09T07:23:15.056Z,86.37
2018-08-09T07:25:43.286Z,86.79
2018-08-09T07:28:11.489Z,86.34
2018-08-09T07:30:39.712Z,86.20
2018-08-09T07:33:07.950Z,85.31
2018-08-09T07:35:36.186Z,85.47
2018-08-09T07:38:04.398Z,83.08
2018-08-09T07:40:32.641Z,81.96
2018-08-09T07:43:00.854Z,82.58
2018-08-09T07:45:29.093Z,83.03
2018-08-09T07:47:57.281Z,82.98
2018-08-09T07:50:25.502Z,79.45
2018-08-09T07:52:53.716Z,78.63
2018-08-09T07:55:21.933Z,78.47
2018-08-09T07:57:50.158Z,80.67
2018-08-09T08:00:18.364Z,80.44
2018-08-09T08:02:46.587Z,74.67
2018-08-09T08:05:14.799Z,74.36
2018-08-09T08:07:43.007Z,71.70
2018-08-09T08:10:11.296Z,72.31
2018-08-09T08:12:39.719Z,71.72
2018-08-09T08:15:09.049Z,71.64
2018-08-09T08:17:37.323Z,72.45
2018-08-09T08:20:05.534Z,72.38
2018-08-09T08:22:33.742Z,69.35
2018-08-09T08:25:01.972Z,70.31
2018-08-09T08:27:30.160Z,69.06
2018-08-09T08:29:58.393Z,69.01
2018-08-09T08:32:26.583Z,68.24
2018-08-09T08:34:54.807Z,68.13
2018-08-09T08:37:23.047Z,68.12
2018-08-09T08:39:51.232Z,67.97
2018-08-09T08:42:19.478Z,67.91
2018-08-09T08:44:47.683Z,64.27
2018-08-09T08:47:15.901Z,64.81
2018-08-09T08:49:44.118Z,64.96
2018-08-09T08:52:12.321Z,64.20
2018-08-09T08:54:40.518Z,63.02
2018-08-09T08:57:08.744Z,63.55
2018-08-09T08:59:36.917Z,64.84
2018-08-09T09:02:05.118Z,62.65
2018-08-09T09:04:33.364Z,62.46
2018-08-09T09:07:01.713Z,64.03
2018-08-09T09:09:29.831Z,62.14
2018-08-09T09:11:58.048Z,62.64
2018-08-09T09:14:26.286Z,61.18
2018-08-09T09:16:54.531Z,60.00
2018-08-09T09:19:22.810Z,60.59
2018-08-09T09:21:51.144Z,59.37
2018-08-09T09:24:19.354Z,61.57
2018-08-09T09:29:15.782Z,58.86
2018-08-09T09:31:43.990Z,58.14
2018-08-09T09:34:12.257Z,57.72
2018-08-09T09:36:40.470Z,56.93
2018-08-09T09:39:09.938Z,58.77
2018-08-09T09:41:38.449Z,57.15
2018-08-09T09:44:06.804Z,55.37
2018-08-09T09:46:35.026Z,55.35
2018-08-09T09:49:03.396Z,56.25
2018-08-09T09:51:31.626Z,55.28
2018-08-09T09:54:00.171Z,54.33
2018-08-09T09:56:28.369Z,54.15
2018-08-09T09:58:56.593Z,55.10
2018-08-09T10:01:30.134Z,56.63
2018-08-09T10:03:58.326Z,53.66
2018-08-09T10:06:26.533Z,52.45
2018-08-09T10:08:54.758Z,54.20
2018-08-09T10:11:23.003Z,53.76
2018-08-09T10:13:51.205Z,52.04
2018-08-09T10:16:19.375Z,54.03
2018-08-09T10:18:47.601Z,53.38
2018-08-09T10:21:15.802Z,52.67
2018-08-09T10:23:44.022Z,50.26
2018-08-09T10:26:12.241Z,49.07
2018-08-09T10:28:40.461Z,47.84
2018-08-09T10:31:09.498Z,49.44
2018-08-09T10:33:37.805Z,48.25
2018-08-09T10:36:06.070Z,49.27
2018-08-09T10:38:34.310Z,49.74
2018-08-09T10:41:02.817Z,48.95
2018-08-09T10:43:31.091Z,48.14
2018-08-09T10:45:59.434Z,46.40
2018-08-09T10:48:27.678Z,47.32
2018-08-09T10:50:55.873Z,48.32
2018-08-09T10:53:24.178Z,46.61
2018-08-09T10:55:52.379Z,45.06
2018-08-09T10:58:20.597Z,46.09
2018-08-09T11:00:48.780Z,45.84
2018-08-09T11:03:16.977Z,47.89
2018-08-09T11:05:45.206Z,48.34
2018-08-09T11:08:13.410Z,46.20
2018-08-09T11:10:41.866Z,44.55
2018-08-09T11:13:10.737Z,44.81
2018-08-09T11:15:38.936Z,44.36
2018-08-09T11:18:07.194Z,45.33
2018-08-09T11:20:35.389Z,44.32
2018-08-09T11:23:03.590Z,44.43
2018-08-09T11:25:31.768Z,45.83
2018-08-09T11:27:59.934Z,44.80
2018-08-09T11:30:28.093Z,45.59
2018-08-09T11:32:56.273Z,44.91
2018-08-09T11:35:24.462Z,46.83
2018-08-09T11:37:52.640Z,46.27
2018-08-09T11:40:20.833Z,45.67
2018-08-09T11:42:49.010Z,46.17
2018-08-09T11:45:17.175Z,45.03
2018-08-09T11:47:45.358Z,45.40
2018-08-09T11:50:13.534Z,44.27
2018-08-09T11:52:41.741Z,44.08
2018-08-09T11:55:09.927Z,43.79
2018-08-09T11:57:38.105Z,44.11
2018-08-09T12:00:08.229Z,44.29
2018-08-09T12:02:36.429Z,43.37
2018-08-09T12:05:04.676Z,44.21
2018-08-09T12:07:32.867Z,43.41
2018-08-09T12:10:01.071Z,44.21
2018-08-09T12:12:29.260Z,44.90
2018-08-09T12:14:57.528Z,42.35
2018-08-09T12:17:25.678Z,41.96
2018-08-09T12:19:53.921Z,42.30
2018-08-09T12:22:22.098Z,41.13
2018-08-09T12:24:50.336Z,43.15
2018-08-09T12:27:18.498Z,42.55
2018-08-09T12:29:46.682Z,41.67
2018-08-09T12:32:14.873Z,41.70
2018-08-09T12:34:43.066Z,42.97
2018-08-09T12:37:11.252Z,39.61
2018-08-09T12:39:39.437Z,37.05
2018-08-09T12:42:07.633Z,38.54
2018-08-09T12:44:35.911Z,37.82
2018-08-09T12:47:04.177Z,36.37
2018-08-09T12:49:32.390Z,36.48
2018-08-09T12:52:00.590Z,34.48
2018-08-09T12:54:28.769Z,35.15
2018-08-09T12:56:56.961Z,35.27
2018-08-09T12:59:25.248Z,36.86
2018-08-09T13:01:53.450Z,36.08
2018-08-09T13:04:21.631Z,36.09
2018-08-09T13:06:49.869Z,35.51
2018-08-09T13:09:19.101Z,33.39
2018-08-09T13:16:35.474Z,35.38
2018-08-09T13:19:03.806Z,34.69
2018-08-09T13:21:32.042Z,33.94
2018-08-09T13:24:00.242Z,34.88
2018-08-09T13:26:28.522Z,35.61
2018-08-09T13:28:56.685Z,44.57
2018-08-09T13:31:25.046Z,49.89
2018-08-09T13:33:53.293Z,52.78
2018-08-09T13:36:21.657Z,55.80
2018-08-09T13:38:50.038Z,56.23
2018-08-09T13:41:18.214Z,59.51
2018-08-09T13:43:46.425Z,59.97
2018-08-09T13:46:14.634Z,61.57
2018-08-09T13:48:42.809Z,65.49
2018-08-09T13:51:10.990Z,76.65
2018-08-09T13:53:39.198Z,82.73
2018-08-09T13:56:07.432Z,86.46
2018-08-09T13:58:35.598Z,92.57
2018-08-09T14:01:03.797Z,99.37
2018-08-09T14:03:32.054Z,99.78
2018-08-09T14:06:00.261Z,100.00
2018-08-09T14:08:28.484Z,100.00
2018-08-09T14:10:56.774Z,99.69
2018-08-09T14:13:24.938Z,100.00
2018-08-09T14:15:53.118Z,96.56
2018-08-09T14:18:21.353Z,100.00
2018-08-09T14:20:49.527Z,94.90
2018-08-09T14:23:17.697Z,95.65
2018-08-09T14:25:45.926Z,94.94
2018-08-09T14:28:14.117Z,95.15
2018-08-09T14:30:42.385Z,94.06
2018-08-09T14:33:10.553Z,90.54
2018-08-09T14:35:38.739Z,86.71
2018-08-09T14:38:06.918Z,83.90
2018-08-09T14:40:35.113Z,87.21
2018-08-09T14:43:03.353Z,83.55
2018-08-09T14:45:31.517Z,82.79
2018-08-09T14:47:59.810Z,83.58
2018-08-09T14:50:28.093Z,82.53
2018-08-09T14:52:56.405Z,82.04
2018-08-09T14:55:24.646Z,79.34
2018-08-09T14:57:52.857Z,81.53
2018-08-09T15:00:21.045Z,78.04
2018-08-09T15:02:49.360Z,78.53
2018-08-09T15:05:17.917Z,81.09
2018-08-09T15:07:46.346Z,79.42
2018-08-09T15:10:15.372Z,80.67
2018-08-09T15:12:43.578Z,81.07
2018-08-09T15:15:12.106Z,81.66
2018-08-09T15:17:40.373Z,81.96
2018-08-09T15:20:10.499Z,80.77
2018-08-09T15:22:38.856Z,82.58
2018-08-09T15:25:07.795Z,81.39
2018-08-09T15:27:35.969Z,80.66
2018-08-09T15:30:05.168Z,80.33
2018-08-09T15:32:33.346Z,81.57
2018-08-09T15:35:01.671Z,80.50
2018-08-09T15:37:29.867Z,79.59
2018-08-09T15:39:58.047Z,79.65
2018-08-09T15:42:26.241Z,79.92
2018-08-09T15:44:54.438Z,79.09
2018-08-09T15:47:22.796Z,80.24
2018-08-09T15:49:51.073Z,78.32
2018-08-09T15:52:19.261Z,81.16
2018-08-09T15:54:47.445Z,78.04
2018-08-09T15:57:15.665Z,78.26
2018-08-09T15:59:44.147Z,72.87
2018-08-09T16:02:12.439Z,72.11
2018-08-09T16:04:40.567Z,69.89
2018-08-09T16:07:08.829Z,68.68
2018-08-09T16:09:37.022Z,64.71
2018-08-09T16:12:05.232Z,65.62
2018-08-09T16:14:33.572Z,66.22
2018-08-09T16:17:01.752Z,68.95
2018-08-09T16:19:29.994Z,65.89
2018-08-09T16:21:58.166Z,68.53
2018-08-09T16:24:26.418Z,67.33
2018-08-09T16:26:54.627Z,67.87
2018-08-09T16:29:22.809Z,69.46
2018-08-09T16:31:51.006Z,73.09
2018-08-09T16:34:19.283Z,70.06
2018-08-09T16:36:47.473Z,73.04
2018-08-09T16:39:15.674Z,69.96
2018-08-09T16:41:43.973Z,71.42
2018-08-09T16:44:12.435Z,72.88
2018-08-09T16:46:40.666Z,72.14
2018-08-09T16:52:26.191Z,76.77
2018-08-09T16:54:54.997Z,76.48
2018-08-09T16:57:23.330Z,76.42
2018-08-09T16:59:51.635Z,77.36
2018-08-09T17:02:19.957Z,77.37
2018-08-09T17:04:48.193Z,75.94
2018-08-09T17:07:16.490Z,67.98
2018-08-09T17:09:44.754Z,71.94
2018-08-09T17:12:13.026Z,72.62
2018-08-09T17:14:41.333Z,67.39
2018-08-09T17:17:09.618Z,67.66
2018-08-09T17:19:37.915Z,67.45
2018-08-09T17:22:06.932Z,67.99
2018-08-09T17:24:35.175Z,69.56
2018-08-09T17:27:03.494Z,73.59
2018-08-09T17:29:31.864Z,75.34
2018-08-09T17:32:00.075Z,74.22
2018-08-09T17:34:28.352Z,75.64
2018-08-09T17:36:56.687Z,75.54
2018-08-09T17:39:24.937Z,78.10
2018-08-09T17:41:53.131Z,78.87
2018-08-09T17:44:21.431Z,82.73
2018-08-09T17:46:49.663Z,85.87
2018-08-09T17:49:17.953Z,91.86
2018-08-09T17:51:46.292Z,88.25
2018-08-09T17:54:14.586Z,89.47
2018-08-09T17:56:42.796Z,94.46
2018-08-09T17:59:11.038Z,95.44
2018-08-09T18:01:39.302Z,92.22
2018-08-09T18:04:07.711Z,90.81
2018-08-09T18:06:36.030Z,89.62
2018-08-09T18:09:07.056Z,88.12
2018-08-09T18:11:35.370Z,85.35
2018-08-09T18:14:03.756Z,84.51
2018-08-09T18:16:31.986Z,83.19
2018-08-09T18:19:00.214Z,84.46
2018-08-09T18:21:28.416Z,87.80
2018-08-09T18:23:56.648Z,87.75
2018-08-09T18:26:24.963Z,84.97
2018-08-09T18:28:53.294Z,89.42
2018-08-09T18:31:21.555Z,85.65
2018-08-09T18:33:49.906Z,81.95
2018-08-09T18:36:18.195Z,82.89
2018-08-09T18:38:46.510Z,81.49
2018-08-09T18:41:14.817Z,81.45
2018-08-09T18:43:43.116Z,85.21
2018-08-09T18:46:11.418Z,83.44
2018-08-09T18:48:39.691Z,86.08
2018-08-09T18:51:08.123Z,82.87
2018-08-09T18:53:36.351Z,81.66
2018-08-09T18:56:04.694Z,81.75
2018-08-09T18:58:32.913Z,78.21
2018-08-09T19:01:01.311Z,79.39
2018-08-09T19:03:29.678Z,79.95
2018-08-09T19:05:58.873Z,79.75
2018-08-09T19:08:27.207Z,81.14
2018-08-09T19:10:55.499Z,80.82
2018-08-09T19:13:23.783Z,80.02
2018-08-09T19:15:52.056Z,80.35
2018-08-09T19:18:20.359Z,79.99
2018-08-09T19:20:48.622Z,81.32
2018-08-09T19:23:17.027Z,84.91
2018-08-09T19:25:45.590Z,84.35
2018-08-09T19:28:13.831Z,86.54
2018-08-09T19:30:42.110Z,83.82
2018-08-09T19:33:10.455Z,84.38
2018-08-09T19:35:38.679Z,87.65
2018-08-09T19:38:07.035Z,86.34
2018-08-09T19:40:35.263Z,86.01
2018-08-09T19:43:03.583Z,87.00
2018-08-09T19:45:31.811Z,89.48
2018-08-09T19:48:00.087Z,87.90
2018-08-09T19:50:28.342Z,89.46
2018-08-09T19:52:56.630Z,87.92
2018-08-09T19:55:26.178Z,89.54
2018-08-09T19:57:54.473Z,87.57
2018-08-09T20:00:25.214Z,85.61
2018-08-09T20:02:53.431Z,86.77
2018-08-09T20:05:21.838Z,87.20
2018-08-09T20:07:50.107Z,83.74
2018-08-09T20:10:18.328Z,83.87
2018-08-09T20:12:47.625Z,82.62
2018-08-09T20:15:18.626Z,82.09
2018-08-09T20:17:46.859Z,83.62
2018-08-09T20:20:16.239Z,84.41
2018-08-09T20:22:44.550Z,85.03
2018-08-09T20:25:13.527Z,85.72
2018-08-09T20:27:42.326Z,83.97
2018-08-09T20:30:12.153Z,82.26
2018-08-09T20:32:40.746Z,81.74
2018-08-09T20:35:11.838Z,81.29
2018-08-09T20:37:41.532Z,82.56
2018-08-09T20:40:10.631Z,82.18
2018-08-09T20:42:39.418Z,82.26
2018-08-09T20:45:09.064Z,83.73
2018-08-09T20:47:38.038Z,83.56
2018-08-09T20:50:08.887Z,82.42
2018-08-09T20:52:39.371Z,83.89
2018-08-09T20:55:08.142Z,81.66
2018-08-09T20:57:36.451Z,82.14
2018-08-09T21:00:08.379Z,83.09
2018-08-09T21:02:36.734Z,82.75
2018-08-09T21:05:05.336Z,83.83
2018-08-09T21:07:33.563Z,82.14
2018-08-09T21:10:01.788Z,80.79
2018-08-09T21:12:30.059Z,80.71
2018-08-09T21:14:58.378Z,79.46
2018-08-09T21:17:26.605Z,80.56
2018-08-09T21:19:54.941Z,84.43
2018-08-09T21:22:23.189Z,81.34
2018-08-09T21:24:51.475Z,82.61
2018-08-09T21:27:19.778Z,83.00
2018-08-09T21:29:48.083Z,83.32
2018-08-09T21:32:16.380Z,83.40
2018-08-09T21:34:44.515Z,84.00
2018-08-09T21:37:12.743Z,81.92
2018-08-09T21:39:40.935Z,81.17
2018-08-09T21:42:09.229Z,83.89
2018-08-09T21:44:37.467Z,82.04
2018-08-09T21:47:05.794Z,81.92
2018-08-09T21:49:34.042Z,81.37
2018-08-09T21:52:02.367Z,84.43
2018-08-09T21:54:30.681Z,83.33
2018-08-09T21:56:58.966Z,80.25
2018-08-09T21:59:27.267Z,81.03
2018-08-09T22:01:55.567Z,77.85
2018-08-09T22:04:23.791Z,76.35
2018-08-09T22:06:57.358Z,76.30
2018-08-09T22:09:30.702Z,76.31
2018-08-09T22:12:04.330Z,77.71
2018-08-09T22:14:37.939Z,74.51
2018-08-09T22:17:11.466Z,79.21
2018-08-09T22:19:45.171Z,74.64
2018-08-09T22:22:14.059Z,75.66
2018-08-09T22:24:42.275Z,74.64
2018-08-09T22:27:10.914Z,76.39
2018-08-09T22:29:39.142Z,76.31
2018-08-09T22:32:07.451Z,76.40
2018-08-09T22:34:35.712Z,78.21
2018-08-09T22:37:04.067Z,78.70
2018-08-09T22:39:32.286Z,78.42
2018-08-09T22:42:00.612Z,78.76
2018-08-09T22:44:28.850Z,79.57
2018-08-09T22:46:57.145Z,78.87
2018-08-09T22:49:40.127Z,78.80
2018-08-09T22:52:08.386Z,77.68
2018-08-09T22:54:36.651Z,78.20
2018-08-09T23:00:36.447Z,80.93
2018-08-09T23:03:08.171Z,80.71
2018-08-09T23:05:36.934Z,78.78
2018-08-09T23:08:05.762Z,79.25
2018-08-09T23:10:34.011Z,79.21
2018-08-09T23:13:02.271Z,78.28
2018-08-09T23:15:30.510Z,80.41
2018-08-09T23:17:58.814Z,77.78
2018-08-09T23:20:27.052Z,77.32
2018-08-09T23:22:55.338Z,78.67
2018-08-09T23:25:23.563Z,78.10
2018-08-09T23:27:51.846Z,79.01
2018-08-09T23:30:20.128Z,78.25
2018-08-09T23:32:48.420Z,77.94
2018-08-09T23:35:16.699Z,79.90
2018-08-09T23:37:44.986Z,79.79
2018-08-09T23:40:13.274Z,78.68
2018-08-09T23:42:41.511Z,77.86
2018-08-09T23:45:10.202Z,78.81
2018-08-09T23:47:39.647Z,78.93
2018-08-09T23:50:09.679Z,80.98
2018-08-09T23:52:38.805Z,80.01
2018-08-09T23:55:09.682Z,78.42
2018-08-09T23:57:37.988Z,78.14
